sensor_id;sensor_type;location;lat;lon;timestamp;P1;durP1;ratioP1;P2;durP2;ratioP2
79074;SDS011;68476;42.710;23.388;2023-05-07T00:01:41;19.02;;;12.55;;
79074;SDS011;68476;42.710;23.388;2023-05-07T00:04:06;17.10;;;12.77;;
79074;SDS011;68476;42.710;23.388;2023-05-07T00:06:32;16.42;;;12.63;;
79074;SDS011;68476;42.710;23.388;2023-05-07T00:08:58;19.80;;;13.50;;
79074;SDS011;68476;42.710;23.388;2023-05-07T00:11:24;17.67;;;12.63;;
79074;SDS011;68476;42.710;23.388;2023-05-07T00:13:50;19.17;;;11.85;;
79074;SDS011;68476;42.710;23.388;2023-05-07T00:16:16;17.33;;;11.38;;
79074;SDS011;68476;42.710;23.388;2023-05-07T00:18:41;21.52;;;13.27;;
79074;SDS011;68476;42.710;23.388;2023-05-07T00:21:06;17.02;;;12.30;;
79074;SDS011;68476;42.710;23.388;2023-05-07T00:23:32;18.23;;;12.00;;
79074;SDS011;68476;42.710;23.388;2023-05-07T00:25:57;13.98;;;9.52;;
79074;SDS011;68476;42.710;23.388;2023-05-07T00:28:22;12.13;;;8.80;;
79074;SDS011;68476;42.710;23.388;2023-05-07T00:30:48;13.68;;;9.85;;
79074;SDS011;68476;42.710;23.388;2023-05-07T00:33:13;10.30;;;8.27;;
79074;SDS011;68476;42.710;23.388;2023-05-07T00:35:39;12.38;;;8.43;;
79074;SDS011;68476;42.710;23.388;2023-05-07T00:38:04;12.43;;;8.15;;
79074;SDS011;68476;42.710;23.388;2023-05-07T00:40:29;14.82;;;8.20;;
79074;SDS011;68476;42.710;23.388;2023-05-07T00:42:55;14.32;;;8.45;;
79074;SDS011;68476;42.710;23.388;2023-05-07T00:45:23;12.60;;;8.43;;
79074;SDS011;68476;42.710;23.388;2023-05-07T00:47:57;14.30;;;9.02;;
79074;SDS011;68476;42.710;23.388;2023-05-07T00:50:25;12.05;;;8.75;;
79074;SDS011;68476;42.710;23.388;2023-05-07T00:52:54;14.65;;;9.38;;
79074;SDS011;68476;42.710;23.388;2023-05-07T00:55:21;11.30;;;8.32;;
79074;SDS011;68476;42.710;23.388;2023-05-07T00:57:47;14.27;;;8.32;;
79074;SDS011;68476;42.710;23.388;2023-05-07T01:00:12;12.50;;;8.52;;
79074;SDS011;68476;42.710;23.388;2023-05-07T01:02:38;11.27;;;7.45;;
79074;SDS011;68476;42.710;23.388;2023-05-07T01:05:05;10.10;;;7.70;;
79074;SDS011;68476;42.710;23.388;2023-05-07T01:07:32;13.45;;;8.80;;
79074;SDS011;68476;42.710;23.388;2023-05-07T01:09:59;10.70;;;7.60;;
79074;SDS011;68476;42.710;23.388;2023-05-07T01:12:26;11.15;;;8.55;;
79074;SDS011;68476;42.710;23.388;2023-05-07T01:14:54;11.98;;;8.48;;
79074;SDS011;68476;42.710;23.388;2023-05-07T01:17:20;12.85;;;8.15;;
79074;SDS011;68476;42.710;23.388;2023-05-07T01:19:45;9.80;;;7.60;;
79074;SDS011;68476;42.710;23.388;2023-05-07T01:22:12;9.88;;;7.80;;
79074;SDS011;68476;42.710;23.388;2023-05-07T01:24:41;10.63;;;7.75;;
79074;SDS011;68476;42.710;23.388;2023-05-07T01:27:06;11.45;;;7.70;;
79074;SDS011;68476;42.710;23.388;2023-05-07T01:29:32;11.05;;;6.55;;
79074;SDS011;68476;42.710;23.388;2023-05-07T01:31:58;11.50;;;7.95;;
79074;SDS011;68476;42.710;23.388;2023-05-07T01:34:25;10.73;;;7.35;;
79074;SDS011;68476;42.710;23.388;2023-05-07T01:36:54;9.88;;;7.90;;
79074;SDS011;68476;42.710;23.388;2023-05-07T01:39:21;10.13;;;8.07;;
79074;SDS011;68476;42.710;23.388;2023-05-07T01:41:49;10.38;;;7.53;;
79074;SDS011;68476;42.710;23.388;2023-05-07T01:44:15;10.55;;;7.57;;
79074;SDS011;68476;42.710;23.388;2023-05-07T01:46:41;10.25;;;7.45;;
79074;SDS011;68476;42.710;23.388;2023-05-07T01:49:07;12.77;;;9.15;;
79074;SDS011;68476;42.710;23.388;2023-05-07T01:51:33;11.23;;;7.68;;
79074;SDS011;68476;42.710;23.388;2023-05-07T01:53:59;12.77;;;8.27;;
79074;SDS011;68476;42.710;23.388;2023-05-07T01:56:25;11.93;;;8.27;;
79074;SDS011;68476;42.710;23.388;2023-05-07T01:58:50;11.80;;;7.43;;
79074;SDS011;68476;42.710;23.388;2023-05-07T02:01:16;11.43;;;7.95;;
79074;SDS011;68476;42.710;23.388;2023-05-07T02:03:43;11.30;;;8.50;;
79074;SDS011;68476;42.710;23.388;2023-05-07T02:06:08;10.95;;;7.78;;
79074;SDS011;68476;42.710;23.388;2023-05-07T02:08:34;11.43;;;8.50;;
79074;SDS011;68476;42.710;23.388;2023-05-07T02:10:59;10.18;;;7.60;;
79074;SDS011;68476;42.710;23.388;2023-05-07T02:13:26;10.07;;;7.72;;
79074;SDS011;68476;42.710;23.388;2023-05-07T02:15:53;11.77;;;7.80;;
79074;SDS011;68476;42.710;23.388;2023-05-07T02:18:19;10.23;;;7.28;;
79074;SDS011;68476;42.710;23.388;2023-05-07T02:20:44;12.18;;;8.27;;
79074;SDS011;68476;42.710;23.388;2023-05-07T02:23:10;12.13;;;8.27;;
79074;SDS011;68476;42.710;23.388;2023-05-07T02:25:35;10.13;;;7.47;;
79074;SDS011;68476;42.710;23.388;2023-05-07T02:28:00;10.68;;;8.02;;
79074;SDS011;68476;42.710;23.388;2023-05-07T02:30:26;11.05;;;7.97;;
79074;SDS011;68476;42.710;23.388;2023-05-07T02:32:51;12.57;;;7.78;;
79074;SDS011;68476;42.710;23.388;2023-05-07T02:35:16;10.88;;;8.05;;
79074;SDS011;68476;42.710;23.388;2023-05-07T02:37:42;10.18;;;7.85;;
79074;SDS011;68476;42.710;23.388;2023-05-07T02:40:08;10.55;;;7.97;;
79074;SDS011;68476;42.710;23.388;2023-05-07T02:42:34;13.65;;;9.05;;
79074;SDS011;68476;42.710;23.388;2023-05-07T02:44:59;11.82;;;8.32;;
79074;SDS011;68476;42.710;23.388;2023-05-07T02:47:24;10.60;;;7.65;;
79074;SDS011;68476;42.710;23.388;2023-05-07T02:49:53;13.38;;;9.30;;
79074;SDS011;68476;42.710;23.388;2023-05-07T02:52:19;12.18;;;8.65;;
79074;SDS011;68476;42.710;23.388;2023-05-07T02:54:44;12.35;;;8.77;;
79074;SDS011;68476;42.710;23.388;2023-05-07T02:57:09;11.30;;;8.20;;
79074;SDS011;68476;42.710;23.388;2023-05-07T02:59:35;13.10;;;8.55;;
79074;SDS011;68476;42.710;23.388;2023-05-07T03:02:00;11.48;;;8.38;;
79074;SDS011;68476;42.710;23.388;2023-05-07T03:04:26;14.88;;;9.93;;
79074;SDS011;68476;42.710;23.388;2023-05-07T03:06:51;11.50;;;8.88;;
79074;SDS011;68476;42.710;23.388;2023-05-07T03:09:16;14.30;;;8.65;;
79074;SDS011;68476;42.710;23.388;2023-05-07T03:11:42;13.35;;;9.10;;
79074;SDS011;68476;42.710;23.388;2023-05-07T03:14:07;13.68;;;8.85;;
79074;SDS011;68476;42.710;23.388;2023-05-07T03:16:33;14.20;;;9.57;;
79074;SDS011;68476;42.710;23.388;2023-05-07T03:18:58;13.52;;;9.88;;
79074;SDS011;68476;42.710;23.388;2023-05-07T03:21:24;13.25;;;9.63;;
79074;SDS011;68476;42.710;23.388;2023-05-07T03:23:50;12.70;;;9.95;;
79074;SDS011;68476;42.710;23.388;2023-05-07T03:26:16;14.20;;;10.45;;
79074;SDS011;68476;42.710;23.388;2023-05-07T03:28:41;14.38;;;9.68;;
79074;SDS011;68476;42.710;23.388;2023-05-07T03:31:06;16.63;;;11.38;;
79074;SDS011;68476;42.710;23.388;2023-05-07T03:33:35;18.67;;;10.75;;
79074;SDS011;68476;42.710;23.388;2023-05-07T03:36:03;12.88;;;9.57;;
79074;SDS011;68476;42.710;23.388;2023-05-07T03:38:29;13.52;;;10.43;;
79074;SDS011;68476;42.710;23.388;2023-05-07T03:40:54;14.98;;;10.25;;
79074;SDS011;68476;42.710;23.388;2023-05-07T03:43:20;15.25;;;10.40;;
79074;SDS011;68476;42.710;23.388;2023-05-07T03:45:45;15.90;;;10.48;;
79074;SDS011;68476;42.710;23.388;2023-05-07T03:48:11;17.77;;;11.65;;
79074;SDS011;68476;42.710;23.388;2023-05-07T03:50:37;21.83;;;12.55;;
79074;SDS011;68476;42.710;23.388;2023-05-07T03:53:03;39.25;;;12.18;;
79074;SDS011;68476;42.710;23.388;2023-05-07T03:55:28;15.65;;;9.65;;
79074;SDS011;68476;42.710;23.388;2023-05-07T03:57:54;23.20;;;11.88;;
79074;SDS011;68476;42.710;23.388;2023-05-07T04:00:19;14.73;;;10.25;;
79074;SDS011;68476;42.710;23.388;2023-05-07T04:02:45;14.05;;;10.25;;
79074;SDS011;68476;42.710;23.388;2023-05-07T04:05:11;20.90;;;10.25;;
79074;SDS011;68476;42.710;23.388;2023-05-07T04:07:38;15.10;;;9.55;;
79074;SDS011;68476;42.710;23.388;2023-05-07T04:10:03;13.07;;;10.07;;
79074;SDS011;68476;42.710;23.388;2023-05-07T04:12:29;23.13;;;10.88;;
79074;SDS011;68476;42.710;23.388;2023-05-07T04:14:55;27.08;;;10.57;;
79074;SDS011;68476;42.710;23.388;2023-05-07T04:17:20;17.60;;;9.57;;
79074;SDS011;68476;42.710;23.388;2023-05-07T04:19:46;16.27;;;10.35;;
79074;SDS011;68476;42.710;23.388;2023-05-07T04:22:11;15.40;;;11.10;;
79074;SDS011;68476;42.710;23.388;2023-05-07T04:24:37;14.05;;;10.35;;
79074;SDS011;68476;42.710;23.388;2023-05-07T04:27:02;14.77;;;11.35;;
79074;SDS011;68476;42.710;23.388;2023-05-07T04:29:27;15.45;;;11.38;;
79074;SDS011;68476;42.710;23.388;2023-05-07T04:31:53;20.48;;;11.50;;
79074;SDS011;68476;42.710;23.388;2023-05-07T04:34:20;24.13;;;12.65;;
79074;SDS011;68476;42.710;23.388;2023-05-07T04:36:46;14.75;;;11.82;;
79074;SDS011;68476;42.710;23.388;2023-05-07T04:39:11;18.15;;;12.55;;
79074;SDS011;68476;42.710;23.388;2023-05-07T04:41:37;16.67;;;11.38;;
79074;SDS011;68476;42.710;23.388;2023-05-07T04:44:02;16.70;;;11.88;;
79074;SDS011;68476;42.710;23.388;2023-05-07T04:46:29;18.35;;;11.77;;
79074;SDS011;68476;42.710;23.388;2023-05-07T04:48:54;17.40;;;11.95;;
79074;SDS011;68476;42.710;23.388;2023-05-07T04:51:19;15.55;;;11.18;;
79074;SDS011;68476;42.710;23.388;2023-05-07T04:53:45;15.48;;;11.65;;
79074;SDS011;68476;42.710;23.388;2023-05-07T04:56:10;19.00;;;12.27;;
79074;SDS011;68476;42.710;23.388;2023-05-07T04:58:35;27.67;;;11.85;;
79074;SDS011;68476;42.710;23.388;2023-05-07T05:01:01;15.85;;;10.93;;
79074;SDS011;68476;42.710;23.388;2023-05-07T05:03:26;19.00;;;13.07;;
79074;SDS011;68476;42.710;23.388;2023-05-07T05:05:52;24.83;;;11.90;;
79074;SDS011;68476;42.710;23.388;2023-05-07T05:08:18;20.05;;;12.32;;
79074;SDS011;68476;42.710;23.388;2023-05-07T05:10:43;20.52;;;12.35;;
79074;SDS011;68476;42.710;23.388;2023-05-07T05:13:09;18.92;;;11.10;;
79074;SDS011;68476;42.710;23.388;2023-05-07T05:15:37;16.15;;;11.55;;
79074;SDS011;68476;42.710;23.388;2023-05-07T05:18:03;20.98;;;12.80;;
79074;SDS011;68476;42.710;23.388;2023-05-07T05:20:28;18.38;;;10.65;;
79074;SDS011;68476;42.710;23.388;2023-05-07T05:22:54;17.50;;;11.75;;
79074;SDS011;68476;42.710;23.388;2023-05-07T05:25:19;22.58;;;11.70;;
79074;SDS011;68476;42.710;23.388;2023-05-07T05:27:44;14.80;;;11.38;;
79074;SDS011;68476;42.710;23.388;2023-05-07T05:30:10;17.02;;;12.00;;
79074;SDS011;68476;42.710;23.388;2023-05-07T05:32:36;16.20;;;11.38;;
79074;SDS011;68476;42.710;23.388;2023-05-07T05:35:01;16.85;;;11.20;;
79074;SDS011;68476;42.710;23.388;2023-05-07T05:37:27;21.60;;;11.88;;
79074;SDS011;68476;42.710;23.388;2023-05-07T05:39:52;13.23;;;11.07;;
79074;SDS011;68476;42.710;23.388;2023-05-07T05:42:19;15.35;;;11.02;;
79074;SDS011;68476;42.710;23.388;2023-05-07T05:44:45;18.05;;;10.88;;
79074;SDS011;68476;42.710;23.388;2023-05-07T05:47:10;14.38;;;11.02;;
79074;SDS011;68476;42.710;23.388;2023-05-07T05:49:36;14.85;;;10.30;;
79074;SDS011;68476;42.710;23.388;2023-05-07T05:52:01;15.10;;;11.15;;
79074;SDS011;68476;42.710;23.388;2023-05-07T05:54:26;14.63;;;10.35;;
79074;SDS011;68476;42.710;23.388;2023-05-07T05:56:52;13.27;;;10.48;;
79074;SDS011;68476;42.710;23.388;2023-05-07T05:59:17;14.25;;;11.13;;
79074;SDS011;68476;42.710;23.388;2023-05-07T06:01:42;15.15;;;10.95;;
79074;SDS011;68476;42.710;23.388;2023-05-07T06:04:08;14.50;;;10.07;;
79074;SDS011;68476;42.710;23.388;2023-05-07T06:06:33;13.52;;;10.45;;
79074;SDS011;68476;42.710;23.388;2023-05-07T06:08:59;14.82;;;10.65;;
79074;SDS011;68476;42.710;23.388;2023-05-07T06:11:24;14.82;;;11.13;;
79074;SDS011;68476;42.710;23.388;2023-05-07T06:13:50;13.25;;;10.13;;
79074;SDS011;68476;42.710;23.388;2023-05-07T06:16:15;13.35;;;10.27;;
79074;SDS011;68476;42.710;23.388;2023-05-07T06:18:41;14.55;;;10.25;;
79074;SDS011;68476;42.710;23.388;2023-05-07T06:21:06;12.48;;;9.93;;
79074;SDS011;68476;42.710;23.388;2023-05-07T06:23:31;13.20;;;10.05;;
79074;SDS011;68476;42.710;23.388;2023-05-07T06:25:57;12.98;;;10.38;;
79074;SDS011;68476;42.710;23.388;2023-05-07T06:28:22;13.13;;;9.70;;
79074;SDS011;68476;42.710;23.388;2023-05-07T06:30:49;14.50;;;10.20;;
79074;SDS011;68476;42.710;23.388;2023-05-07T06:33:15;12.77;;;10.20;;
79074;SDS011;68476;42.710;23.388;2023-05-07T06:35:41;14.68;;;10.30;;
79074;SDS011;68476;42.710;23.388;2023-05-07T06:38:06;12.90;;;9.93;;
79074;SDS011;68476;42.710;23.388;2023-05-07T06:40:31;12.88;;;9.32;;
79074;SDS011;68476;42.710;23.388;2023-05-07T06:42:57;12.60;;;10.02;;
79074;SDS011;68476;42.710;23.388;2023-05-07T06:45:22;13.07;;;9.93;;
79074;SDS011;68476;42.710;23.388;2023-05-07T06:47:48;12.70;;;9.27;;
79074;SDS011;68476;42.710;23.388;2023-05-07T06:50:14;13.68;;;9.90;;
79074;SDS011;68476;42.710;23.388;2023-05-07T06:52:41;13.85;;;9.95;;
79074;SDS011;68476;42.710;23.388;2023-05-07T06:55:07;13.60;;;10.15;;
79074;SDS011;68476;42.710;23.388;2023-05-07T06:57:32;12.50;;;9.80;;
79074;SDS011;68476;42.710;23.388;2023-05-07T06:59:58;16.48;;;10.40;;
79074;SDS011;68476;42.710;23.388;2023-05-07T07:02:23;12.98;;;10.02;;
79074;SDS011;68476;42.710;23.388;2023-05-07T07:04:48;12.70;;;9.70;;
79074;SDS011;68476;42.710;23.388;2023-05-07T07:07:14;12.27;;;9.55;;
79074;SDS011;68476;42.710;23.388;2023-05-07T07:09:39;12.82;;;10.05;;
79074;SDS011;68476;42.710;23.388;2023-05-07T07:12:05;13.68;;;10.40;;
79074;SDS011;68476;42.710;23.388;2023-05-07T07:14:30;13.77;;;10.23;;
79074;SDS011;68476;42.710;23.388;2023-05-07T07:16:55;14.63;;;10.05;;
79074;SDS011;68476;42.710;23.388;2023-05-07T07:19:21;13.48;;;9.50;;
79074;SDS011;68476;42.710;23.388;2023-05-07T07:21:46;13.38;;;9.32;;
79074;SDS011;68476;42.710;23.388;2023-05-07T07:24:12;12.50;;;9.70;;
79074;SDS011;68476;42.710;23.388;2023-05-07T07:26:38;12.60;;;9.63;;
79074;SDS011;68476;42.710;23.388;2023-05-07T07:29:05;12.38;;;9.38;;
79074;SDS011;68476;42.710;23.388;2023-05-07T07:31:30;12.23;;;9.32;;
79074;SDS011;68476;42.710;23.388;2023-05-07T07:33:56;12.77;;;9.15;;
79074;SDS011;68476;42.710;23.388;2023-05-07T07:36:21;9.77;;;8.65;;
79074;SDS011;68476;42.710;23.388;2023-05-07T07:38:46;9.75;;;8.48;;
79074;SDS011;68476;42.710;23.388;2023-05-07T07:41:12;11.13;;;8.43;;
79074;SDS011;68476;42.710;23.388;2023-05-07T07:43:37;15.07;;;8.82;;
79074;SDS011;68476;42.710;23.388;2023-05-07T07:46:03;12.35;;;8.75;;
79074;SDS011;68476;42.710;23.388;2023-05-07T07:48:28;12.80;;;7.63;;
79074;SDS011;68476;42.710;23.388;2023-05-07T07:50:53;10.45;;;8.23;;
79074;SDS011;68476;42.710;23.388;2023-05-07T07:53:19;12.13;;;8.30;;
79074;SDS011;68476;42.710;23.388;2023-05-07T07:55:45;11.90;;;7.95;;
79074;SDS011;68476;42.710;23.388;2023-05-07T07:58:10;9.82;;;8.18;;
79074;SDS011;68476;42.710;23.388;2023-05-07T08:00:36;9.23;;;7.72;;
79074;SDS011;68476;42.710;23.388;2023-05-07T08:03:01;10.35;;;7.75;;
79074;SDS011;68476;42.710;23.388;2023-05-07T08:05:28;9.40;;;7.70;;
79074;SDS011;68476;42.710;23.388;2023-05-07T08:07:53;10.40;;;7.90;;
79074;SDS011;68476;42.710;23.388;2023-05-07T08:10:19;8.90;;;6.75;;
79074;SDS011;68476;42.710;23.388;2023-05-07T08:15:16;8.77;;;6.95;;
79074;SDS011;68476;42.710;23.388;2023-05-07T08:17:42;10.68;;;7.75;;
79074;SDS011;68476;42.710;23.388;2023-05-07T08:20:08;10.85;;;7.53;;
79074;SDS011;68476;42.710;23.388;2023-05-07T08:22:34;15.88;;;8.20;;
79074;SDS011;68476;42.710;23.388;2023-05-07T08:25:00;9.38;;;6.90;;
79074;SDS011;68476;42.710;23.388;2023-05-07T08:27:25;10.30;;;7.68;;
79074;SDS011;68476;42.710;23.388;2023-05-07T08:29:51;9.13;;;7.07;;
79074;SDS011;68476;42.710;23.388;2023-05-07T08:32:16;8.43;;;6.85;;
79074;SDS011;68476;42.710;23.388;2023-05-07T08:34:41;8.77;;;7.13;;
79074;SDS011;68476;42.710;23.388;2023-05-07T08:37:07;8.88;;;6.65;;
79074;SDS011;68476;42.710;23.388;2023-05-07T08:39:32;7.50;;;6.50;;
79074;SDS011;68476;42.710;23.388;2023-05-07T08:41:57;8.32;;;6.43;;
79074;SDS011;68476;42.710;23.388;2023-05-07T08:44:27;7.35;;;6.25;;
79074;SDS011;68476;42.710;23.388;2023-05-07T08:46:53;7.22;;;5.95;;
79074;SDS011;68476;42.710;23.388;2023-05-07T08:49:21;7.68;;;5.72;;
79074;SDS011;68476;42.710;23.388;2023-05-07T08:51:47;7.50;;;5.82;;
79074;SDS011;68476;42.710;23.388;2023-05-07T08:54:15;6.35;;;5.03;;
79074;SDS011;68476;42.710;23.388;2023-05-07T08:56:41;7.55;;;5.70;;
79074;SDS011;68476;42.710;23.388;2023-05-07T08:59:06;7.32;;;5.18;;
79074;SDS011;68476;42.710;23.388;2023-05-07T09:01:32;7.95;;;5.07;;
79074;SDS011;68476;42.710;23.388;2023-05-07T09:03:57;6.07;;;5.05;;
79074;SDS011;68476;42.710;23.388;2023-05-07T09:06:23;9.85;;;5.20;;
79074;SDS011;68476;42.710;23.388;2023-05-07T09:08:49;6.53;;;4.93;;
79074;SDS011;68476;42.710;23.388;2023-05-07T09:11:22;9.02;;;5.45;;
79074;SDS011;68476;42.710;23.388;2023-05-07T09:13:48;5.93;;;4.63;;
79074;SDS011;68476;42.710;23.388;2023-05-07T09:16:26;5.90;;;4.75;;
79074;SDS011;68476;42.710;23.388;2023-05-07T09:18:53;5.97;;;4.68;;
79074;SDS011;68476;42.710;23.388;2023-05-07T09:21:19;6.20;;;4.13;;
79074;SDS011;68476;42.710;23.388;2023-05-07T09:23:47;5.60;;;3.72;;
79074;SDS011;68476;42.710;23.388;2023-05-07T09:26:14;4.70;;;3.60;;
79074;SDS011;68476;42.710;23.388;2023-05-07T09:28:40;8.68;;;3.63;;
79074;SDS011;68476;42.710;23.388;2023-05-07T09:31:07;6.40;;;3.67;;
79074;SDS011;68476;42.710;23.388;2023-05-07T09:33:36;6.50;;;3.90;;
79074;SDS011;68476;42.710;23.388;2023-05-07T09:36:02;4.93;;;3.70;;
79074;SDS011;68476;42.710;23.388;2023-05-07T09:38:32;7.00;;;4.32;;
79074;SDS011;68476;42.710;23.388;2023-05-07T09:41:05;8.30;;;4.30;;
79074;SDS011;68476;42.710;23.388;2023-05-07T09:43:33;6.05;;;4.53;;
79074;SDS011;68476;42.710;23.388;2023-05-07T09:46:05;8.32;;;4.82;;
79074;SDS011;68476;42.710;23.388;2023-05-07T09:48:36;5.30;;;4.32;;
79074;SDS011;68476;42.710;23.388;2023-05-07T09:51:06;7.25;;;4.40;;
79074;SDS011;68476;42.710;23.388;2023-05-07T09:53:40;4.97;;;3.80;;
79074;SDS011;68476;42.710;23.388;2023-05-07T09:56:07;5.05;;;4.10;;
79074;SDS011;68476;42.710;23.388;2023-05-07T09:58:33;7.88;;;3.97;;
79074;SDS011;68476;42.710;23.388;2023-05-07T10:01:02;8.05;;;3.95;;
79074;SDS011;68476;42.710;23.388;2023-05-07T10:03:28;4.60;;;3.90;;
79074;SDS011;68476;42.710;23.388;2023-05-07T10:05:58;6.63;;;4.03;;
79074;SDS011;68476;42.710;23.388;2023-05-07T10:08:24;4.63;;;3.53;;
79074;SDS011;68476;42.710;23.388;2023-05-07T10:10:50;7.07;;;3.80;;
79074;SDS011;68476;42.710;23.388;2023-05-07T10:13:16;4.10;;;3.65;;
79074;SDS011;68476;42.710;23.388;2023-05-07T10:15:43;10.43;;;5.15;;
79074;SDS011;68476;42.710;23.388;2023-05-07T10:18:09;6.70;;;3.92;;
79074;SDS011;68476;42.710;23.388;2023-05-07T10:20:37;5.47;;;3.72;;
79074;SDS011;68476;42.710;23.388;2023-05-07T10:23:04;4.88;;;3.85;;
79074;SDS011;68476;42.710;23.388;2023-05-07T10:25:31;4.50;;;3.88;;
79074;SDS011;68476;42.710;23.388;2023-05-07T10:27:59;4.32;;;3.80;;
79074;SDS011;68476;42.710;23.388;2023-05-07T10:33:04;4.18;;;3.08;;
79074;SDS011;68476;42.710;23.388;2023-05-07T10:35:36;4.90;;;3.63;;
79074;SDS011;68476;42.710;23.388;2023-05-07T10:38:05;4.13;;;3.70;;
79074;SDS011;68476;42.710;23.388;2023-05-07T10:40:31;5.20;;;3.30;;
79074;SDS011;68476;42.710;23.388;2023-05-07T10:42:58;4.18;;;3.30;;
79074;SDS011;68476;42.710;23.388;2023-05-07T10:45:25;4.03;;;3.22;;
79074;SDS011;68476;42.710;23.388;2023-05-07T10:50:37;5.38;;;3.65;;
79074;SDS011;68476;42.710;23.388;2023-05-07T10:55:41;4.78;;;3.75;;
79074;SDS011;68476;42.710;23.388;2023-05-07T10:58:26;4.35;;;3.95;;
79074;SDS011;68476;42.710;23.388;2023-05-07T11:00:57;5.25;;;3.63;;
79074;SDS011;68476;42.710;23.388;2023-05-07T11:03:26;4.18;;;3.63;;
79074;SDS011;68476;42.710;23.388;2023-05-07T11:06:08;4.97;;;3.60;;
79074;SDS011;68476;42.710;23.388;2023-05-07T11:09:09;7.43;;;4.40;;
79074;SDS011;68476;42.710;23.388;2023-05-07T11:11:47;6.25;;;3.95;;
79074;SDS011;68476;42.710;23.388;2023-05-07T11:17:16;4.65;;;3.95;;
79074;SDS011;68476;42.710;23.388;2023-05-07T11:19:51;5.78;;;3.85;;
79074;SDS011;68476;42.710;23.388;2023-05-07T11:22:39;4.47;;;3.50;;
79074;SDS011;68476;42.710;23.388;2023-05-07T11:25:06;5.93;;;3.80;;
79074;SDS011;68476;42.710;23.388;2023-05-07T11:27:32;5.55;;;3.70;;
79074;SDS011;68476;42.710;23.388;2023-05-07T11:29:58;4.15;;;3.70;;
79074;SDS011;68476;42.710;23.388;2023-05-07T11:32:24;4.03;;;3.63;;
79074;SDS011;68476;42.710;23.388;2023-05-07T11:34:55;6.35;;;3.75;;
79074;SDS011;68476;42.710;23.388;2023-05-07T11:37:21;4.00;;;3.60;;
79074;SDS011;68476;42.710;23.388;2023-05-07T11:39:48;9.93;;;4.05;;
79074;SDS011;68476;42.710;23.388;2023-05-07T11:44:56;4.63;;;3.30;;
79074;SDS011;68476;42.710;23.388;2023-05-07T11:47:21;3.88;;;3.00;;
79074;SDS011;68476;42.710;23.388;2023-05-07T11:49:47;4.07;;;3.20;;
79074;SDS011;68476;42.710;23.388;2023-05-07T11:52:14;3.13;;;2.83;;
79074;SDS011;68476;42.710;23.388;2023-05-07T11:54:40;4.70;;;3.30;;
79074;SDS011;68476;42.710;23.388;2023-05-07T11:57:06;3.63;;;2.80;;
79074;SDS011;68476;42.710;23.388;2023-05-07T11:59:41;4.47;;;3.00;;
79074;SDS011;68476;42.710;23.388;2023-05-07T12:02:09;3.83;;;2.75;;
79074;SDS011;68476;42.710;23.388;2023-05-07T12:04:35;3.58;;;2.97;;
79074;SDS011;68476;42.710;23.388;2023-05-07T12:07:00;3.47;;;3.00;;
79074;SDS011;68476;42.710;23.388;2023-05-07T12:09:26;4.65;;;2.83;;
79074;SDS011;68476;42.710;23.388;2023-05-07T12:11:51;2.90;;;2.60;;
79074;SDS011;68476;42.710;23.388;2023-05-07T12:14:17;4.25;;;3.00;;
79074;SDS011;68476;42.710;23.388;2023-05-07T12:16:43;4.50;;;3.15;;
79074;SDS011;68476;42.710;23.388;2023-05-07T12:19:10;4.72;;;2.97;;
79074;SDS011;68476;42.710;23.388;2023-05-07T12:21:37;4.50;;;2.95;;
79074;SDS011;68476;42.710;23.388;2023-05-07T12:24:04;6.15;;;3.00;;
79074;SDS011;68476;42.710;23.388;2023-05-07T12:26:30;3.03;;;2.47;;
79074;SDS011;68476;42.710;23.388;2023-05-07T12:28:56;23.38;;;4.50;;
79074;SDS011;68476;42.710;23.388;2023-05-07T12:31:22;3.55;;;2.83;;
79074;SDS011;68476;42.710;23.388;2023-05-07T12:33:50;3.08;;;2.63;;
79074;SDS011;68476;42.710;23.388;2023-05-07T12:36:15;5.32;;;2.95;;
79074;SDS011;68476;42.710;23.388;2023-05-07T12:38:41;5.13;;;2.97;;
79074;SDS011;68476;42.710;23.388;2023-05-07T12:41:07;6.65;;;3.10;;
79074;SDS011;68476;42.710;23.388;2023-05-07T12:43:35;3.53;;;2.88;;
79074;SDS011;68476;42.710;23.388;2023-05-07T12:46:01;4.32;;;3.00;;
79074;SDS011;68476;42.710;23.388;2023-05-07T12:48:30;4.82;;;2.88;;
79074;SDS011;68476;42.710;23.388;2023-05-07T12:50:56;3.63;;;2.95;;
79074;SDS011;68476;42.710;23.388;2023-05-07T12:53:24;3.33;;;2.67;;
79074;SDS011;68476;42.710;23.388;2023-05-07T12:55:51;3.95;;;2.90;;
79074;SDS011;68476;42.710;23.388;2023-05-07T12:58:26;7.38;;;3.03;;
79074;SDS011;68476;42.710;23.388;2023-05-07T13:00:56;6.32;;;3.25;;
79074;SDS011;68476;42.710;23.388;2023-05-07T13:03:30;3.17;;;2.63;;
79074;SDS011;68476;42.710;23.388;2023-05-07T13:05:57;4.40;;;2.80;;
79074;SDS011;68476;42.710;23.388;2023-05-07T13:08:31;3.65;;;3.22;;
79074;SDS011;68476;42.710;23.388;2023-05-07T13:11:09;4.50;;;2.85;;
79074;SDS011;68476;42.710;23.388;2023-05-07T13:13:36;3.70;;;2.80;;
79074;SDS011;68476;42.710;23.388;2023-05-07T13:16:02;3.88;;;2.70;;
79074;SDS011;68476;42.710;23.388;2023-05-07T13:18:29;2.88;;;2.58;;
79074;SDS011;68476;42.710;23.388;2023-05-07T13:20:55;3.35;;;2.65;;
79074;SDS011;68476;42.710;23.388;2023-05-07T13:23:21;2.63;;;2.40;;
79074;SDS011;68476;42.710;23.388;2023-05-07T13:25:47;3.03;;;2.67;;
79074;SDS011;68476;42.710;23.388;2023-05-07T13:28:13;3.92;;;2.80;;
79074;SDS011;68476;42.710;23.388;2023-05-07T13:30:38;3.47;;;2.70;;
79074;SDS011;68476;42.710;23.388;2023-05-07T13:33:04;3.30;;;2.97;;
79074;SDS011;68476;42.710;23.388;2023-05-07T13:35:29;3.70;;;2.67;;
79074;SDS011;68476;42.710;23.388;2023-05-07T13:37:54;3.30;;;2.90;;
79074;SDS011;68476;42.710;23.388;2023-05-07T13:40:21;6.28;;;2.75;;
79074;SDS011;68476;42.710;23.388;2023-05-07T13:42:47;2.90;;;2.60;;
79074;SDS011;68476;42.710;23.388;2023-05-07T13:45:13;6.05;;;2.80;;
79074;SDS011;68476;42.710;23.388;2023-05-07T13:47:39;3.35;;;2.60;;
79074;SDS011;68476;42.710;23.388;2023-05-07T13:50:08;3.60;;;2.80;;
79074;SDS011;68476;42.710;23.388;2023-05-07T13:52:36;3.90;;;2.72;;
79074;SDS011;68476;42.710;23.388;2023-05-07T13:55:02;4.55;;;2.60;;
79074;SDS011;68476;42.710;23.388;2023-05-07T13:57:28;3.78;;;2.72;;
79074;SDS011;68476;42.710;23.388;2023-05-07T13:59:53;4.15;;;2.95;;
79074;SDS011;68476;42.710;23.388;2023-05-07T14:02:18;2.92;;;2.58;;
79074;SDS011;68476;42.710;23.388;2023-05-07T14:04:44;3.97;;;2.70;;
79074;SDS011;68476;42.710;23.388;2023-05-07T14:07:10;6.10;;;2.90;;
79074;SDS011;68476;42.710;23.388;2023-05-07T14:09:35;3.42;;;2.72;;
79074;SDS011;68476;42.710;23.388;2023-05-07T14:12:01;3.65;;;2.85;;
79074;SDS011;68476;42.710;23.388;2023-05-07T14:14:26;4.75;;;2.58;;
79074;SDS011;68476;42.710;23.388;2023-05-07T14:16:52;4.18;;;2.58;;
79074;SDS011;68476;42.710;23.388;2023-05-07T14:19:17;4.78;;;2.80;;
79074;SDS011;68476;42.710;23.388;2023-05-07T14:21:43;3.40;;;2.70;;
79074;SDS011;68476;42.710;23.388;2023-05-07T14:24:08;3.75;;;2.72;;
79074;SDS011;68476;42.710;23.388;2023-05-07T14:26:34;3.10;;;2.45;;
79074;SDS011;68476;42.710;23.388;2023-05-07T14:28:59;2.80;;;2.50;;
79074;SDS011;68476;42.710;23.388;2023-05-07T14:31:25;3.13;;;2.60;;
79074;SDS011;68476;42.710;23.388;2023-05-07T14:33:51;3.10;;;2.63;;
79074;SDS011;68476;42.710;23.388;2023-05-07T14:36:17;4.18;;;2.70;;